createdAt,value
2019-05-26T00:01:25.272Z,20.00
2019-05-26T00:03:53.705Z,20.00
2019-05-26T00:06:22.473Z,19.90
2019-05-26T00:08:50.911Z,19.90
2019-05-26T00:11:19.366Z,19.80
2019-05-26T00:13:47.815Z,19.80
2019-05-26T00:16:16.299Z,19.80
2019-05-26T00:18:45.083Z,19.80
2019-05-26T00:21:13.534Z,19.80
2019-05-26T00:23:41.971Z,19.70
2019-05-26T00:26:10.422Z,19.70
2019-05-26T00:28:38.858Z,19.70
2019-05-26T00:31:07.434Z,19.60
2019-05-26T00:33:35.955Z,19.50
2019-05-26T00:36:04.496Z,19.50
2019-05-26T00:38:33.002Z,19.50
2019-05-26T00:41:01.530Z,19.50
2019-05-26T00:43:30.307Z,19.40
2019-05-26T00:45:58.766Z,19.40
2019-05-26T00:48:27.266Z,19.40
2019-05-26T00:50:55.962Z,19.30
2019-05-26T00:53:24.466Z,19.20
2019-05-26T00:55:52.984Z,19.20
2019-05-26T00:58:21.486Z,19.10
2019-05-26T01:00:50.012Z,19.10
2019-05-26T01:03:18.462Z,19.00
2019-05-26T01:05:46.930Z,18.90
2019-05-26T01:08:15.370Z,18.80
2019-05-26T01:10:43.817Z,18.70
2019-05-26T01:13:12.257Z,18.60
2019-05-26T01:15:40.697Z,18.50
2019-05-26T01:18:09.567Z,18.50
2019-05-26T01:20:38.024Z,18.50
2019-05-26T01:23:06.561Z,18.50
2019-05-26T01:25:35.056Z,18.60
2019-05-26T01:28:03.563Z,18.60
2019-05-26T01:30:39.406Z,18.60
2019-05-26T01:33:08.114Z,18.60
2019-05-26T01:35:39.856Z,18.60
2019-05-26T01:38:23.224Z,18.50
2019-05-26T01:40:42.453Z,18.40
2019-05-26T01:43:11.100Z,18.20
2019-05-26T01:45:39.672Z,18.10
2019-05-26T01:48:08.489Z,18.00
2019-05-26T01:50:37.002Z,17.90
2019-05-26T01:53:06.016Z,17.80
2019-05-26T01:55:34.595Z,17.70
2019-05-26T01:58:03.124Z,17.60
2019-05-26T02:00:31.880Z,17.50
2019-05-26T02:03:00.418Z,17.40
2019-05-26T02:05:28.853Z,17.30
2019-05-26T02:07:57.381Z,17.20
2019-05-26T02:10:26.343Z,17.10
2019-05-26T02:12:54.815Z,17.00
2019-05-26T02:15:23.894Z,17.00
2019-05-26T02:17:52.485Z,16.90
2019-05-26T02:20:21.570Z,16.90
2019-05-26T02:22:50.037Z,16.90
2019-05-26T02:25:20.503Z,16.90
2019-05-26T02:27:49.293Z,16.90
2019-05-26T02:30:18.078Z,16.80
2019-05-26T02:32:46.531Z,16.80
2019-05-26T02:35:15.620Z,16.70
2019-05-26T02:37:44.261Z,16.70
2019-05-26T02:40:14.292Z,16.60
2019-05-26T02:42:42.736Z,16.60
2019-05-26T02:45:15.968Z,16.50
2019-05-26T02:47:45.910Z,16.50
2019-05-26T02:50:16.643Z,16.50
2019-05-26T02:52:45.139Z,16.50
2019-05-26T02:55:15.543Z,16.40
2019-05-26T02:57:43.991Z,16.40
2019-05-26T03:00:14.293Z,16.40
2019-05-26T03:02:43.300Z,16.50
2019-05-26T03:05:12.271Z,16.50
2019-05-26T03:07:43.585Z,16.50
2019-05-26T03:10:14.228Z,16.50
2019-05-26T03:12:43.533Z,16.40
2019-05-26T03:15:13.735Z,16.40
2019-05-26T03:17:42.970Z,16.40
2019-05-26T03:20:15.007Z,16.30
2019-05-26T03:22:43.529Z,16.30
2019-05-26T03:25:14.387Z,16.20
2019-05-26T03:27:42.899Z,16.20
2019-05-26T03:30:11.797Z,16.10
2019-05-26T03:32:40.328Z,16.10
2019-05-26T03:35:10.088Z,16.00
2019-05-26T03:37:38.721Z,16.00
2019-05-26T03:40:09.250Z,16.00
2019-05-26T03:42:37.818Z,16.00
2019-05-26T03:45:07.711Z,16.00
2019-05-26T03:47:36.296Z,16.00
2019-05-26T03:50:06.749Z,16.00
2019-05-26T03:52:35.317Z,15.90
2019-05-26T03:55:05.030Z,15.90
2019-05-26T03:57:33.528Z,15.90
2019-05-26T04:00:02.007Z,15.90
2019-05-26T04:02:30.781Z,15.90
2019-05-26T04:04:59.244Z,16.00
2019-05-26T04:07:27.677Z,16.00
2019-05-26T04:10:04.426Z,16.00
2019-05-26T04:12:26.296Z,16.00
2019-05-26T04:14:54.764Z,16.00
2019-05-26T04:17:23.211Z,16.10
2019-05-26T04:19:51.677Z,16.10
2019-05-26T04:22:20.180Z,16.20
2019-05-26T04:24:48.926Z,16.30
2019-05-26T04:27:17.383Z,16.40
2019-05-26T04:29:45.820Z,16.50
2019-05-26T04:32:14.278Z,16.60
2019-05-26T04:34:42.751Z,16.60
2019-05-26T04:37:11.219Z,16.70
2019-05-26T04:39:39.656Z,16.70
2019-05-26T04:42:08.197Z,16.80
2019-05-26T04:44:36.641Z,16.80
2019-05-26T04:47:05.354Z,16.80
2019-05-26T04:49:37.254Z,16.80
2019-05-26T04:52:04.197Z,16.80
2019-05-26T04:54:32.642Z,16.80
2019-05-26T04:57:01.123Z,16.80
2019-05-26T04:59:29.573Z,16.80
2019-05-26T05:01:58.014Z,16.90
2019-05-26T05:04:26.463Z,16.90
2019-05-26T05:06:54.936Z,17.00
2019-05-26T05:09:23.388Z,17.10
2019-05-26T05:11:52.023Z,17.20
2019-05-26T05:14:20.657Z,17.30
2019-05-26T05:16:49.115Z,17.40
2019-05-26T05:19:17.553Z,17.50
2019-05-26T05:21:46.028Z,17.50
2019-05-26T05:24:14.537Z,17.50
2019-05-26T05:26:43.003Z,17.50
2019-05-26T05:29:11.443Z,17.60
2019-05-26T05:31:39.904Z,17.60
2019-05-26T05:34:08.368Z,17.60
2019-05-26T05:36:36.895Z,17.60
2019-05-26T05:39:07.677Z,17.60
2019-05-26T05:41:36.155Z,17.60
2019-05-26T05:44:04.877Z,17.60
2019-05-26T05:46:33.314Z,17.60
2019-05-26T05:49:02.062Z,17.70
2019-05-26T05:51:30.502Z,17.80
2019-05-26T05:53:59.036Z,17.80
2019-05-26T05:56:27.468Z,17.80
2019-05-26T05:58:55.924Z,17.90
2019-05-26T06:01:24.732Z,17.90
2019-05-26T06:03:53.201Z,18.00
2019-05-26T06:06:21.716Z,17.90
2019-05-26T06:08:50.200Z,17.90
2019-05-26T06:11:18.965Z,17.90
2019-05-26T06:13:47.487Z,18.00
2019-05-26T06:16:15.948Z,18.10
2019-05-26T06:18:44.427Z,18.20
2019-05-26T06:21:12.854Z,18.30
2019-05-26T06:23:41.324Z,18.40
2019-05-26T06:26:09.766Z,18.50
2019-05-26T06:28:38.294Z,18.50
2019-05-26T06:31:06.735Z,18.50
2019-05-26T06:33:35.197Z,18.60
2019-05-26T06:36:03.634Z,18.60
2019-05-26T06:38:32.100Z,18.70
2019-05-26T06:41:00.623Z,18.70
2019-05-26T06:43:29.085Z,18.70
2019-05-26T06:45:57.522Z,18.70
2019-05-26T06:48:26.949Z,18.70
2019-05-26T06:50:55.779Z,18.70
2019-05-26T06:53:24.249Z,18.70
2019-05-26T06:55:52.784Z,18.80
2019-05-26T06:58:21.239Z,18.90
2019-05-26T07:00:50.063Z,18.90
2019-05-26T07:03:18.594Z,19.00
2019-05-26T07:05:47.043Z,19.00
2019-05-26T07:08:15.511Z,18.90
2019-05-26T07:10:43.950Z,19.00
2019-05-26T07:13:12.395Z,19.10
2019-05-26T07:15:41.114Z,19.20
2019-05-26T07:18:09.559Z,19.30
2019-05-26T07:20:38.031Z,19.40
2019-05-26T07:23:07.737Z,19.60
2019-05-26T07:25:36.727Z,19.70
2019-05-26T07:28:05.299Z,19.80
2019-05-26T07:30:33.768Z,20.00
2019-05-26T07:33:02.240Z,20.10
2019-05-26T07:35:33.086Z,20.30
2019-05-26T07:38:00.928Z,20.40
2019-05-26T07:40:29.480Z,20.60
2019-05-26T07:42:57.980Z,20.70
2019-05-26T07:45:27.690Z,21.00
2019-05-26T07:47:56.123Z,21.30
2019-05-26T07:50:24.652Z,21.70
2019-05-26T07:52:53.160Z,22.00
2019-05-26T07:55:21.623Z,22.40
2019-05-26T07:57:50.062Z,22.70
2019-05-26T08:00:20.268Z,23.10
2019-05-26T08:02:48.722Z,23.50
2019-05-26T08:05:18.127Z,23.70
2019-05-26T08:07:46.570Z,23.90
2019-05-26T08:10:15.090Z,24.10
2019-05-26T08:12:43.519Z,24.40
2019-05-26T08:15:12.329Z,24.60
2019-05-26T08:17:40.908Z,24.80
2019-05-26T08:20:10.517Z,25.20
2019-05-26T08:22:38.963Z,25.50
2019-05-26T08:25:08.270Z,26.00
2019-05-26T08:27:36.710Z,26.30
2019-05-26T08:30:07.615Z,26.80
2019-05-26T08:32:36.087Z,26.90
2019-05-26T08:35:06.768Z,27.00
2019-05-26T08:37:35.204Z,27.00
2019-05-26T08:40:19.400Z,27.10
2019-05-26T08:42:48.986Z,27.30
2019-05-26T08:45:21.402Z,27.50
2019-05-26T08:47:48.210Z,27.50
2019-05-26T08:50:17.431Z,27.60
2019-05-26T08:52:45.881Z,27.70
2019-05-26T08:55:15.175Z,27.70
2019-05-26T08:57:43.627Z,27.70
2019-05-26T09:00:14.332Z,27.60
2019-05-26T09:02:42.929Z,27.30
2019-05-26T09:05:11.622Z,27.00
2019-05-26T09:07:40.060Z,26.90
2019-05-26T09:10:08.818Z,26.60
2019-05-26T09:12:37.588Z,26.30
2019-05-26T09:15:06.856Z,26.20
2019-05-26T09:17:35.676Z,26.20
2019-05-26T09:20:10.401Z,26.50
2019-05-26T09:22:37.212Z,26.70
2019-05-26T09:25:09.316Z,27.00
2019-05-26T09:27:37.774Z,27.40
2019-05-26T09:30:08.128Z,27.70
2019-05-26T09:32:37.069Z,28.00
2019-05-26T09:35:08.745Z,28.20
2019-05-26T09:37:37.200Z,28.10
2019-05-26T09:40:08.866Z,28.10
2019-05-26T09:42:37.387Z,28.10
2019-05-26T09:45:08.025Z,28.20
2019-05-26T09:47:36.481Z,28.40
2019-05-26T09:50:06.671Z,28.50
2019-05-26T09:52:35.329Z,28.60
2019-05-26T09:55:07.375Z,28.70
2019-05-26T09:57:36.102Z,28.70
2019-05-26T10:00:09.405Z,28.60
2019-05-26T10:02:37.994Z,28.40
2019-05-26T10:05:07.067Z,28.30
2019-05-26T10:07:35.539Z,27.90
2019-05-26T10:10:08.451Z,27.70
2019-05-26T10:12:36.999Z,27.60
2019-05-26T10:15:06.693Z,27.60
2019-05-26T10:17:35.223Z,27.70
2019-05-26T10:20:06.564Z,27.90
2019-05-26T10:22:35.126Z,28.10
2019-05-26T10:25:07.622Z,28.20
2019-05-26T10:27:36.327Z,28.50
2019-05-26T10:30:10.451Z,28.70
2019-05-26T10:32:39.291Z,29.00
2019-05-26T10:35:08.970Z,29.30
2019-05-26T10:37:37.431Z,29.30
2019-05-26T10:40:07.819Z,29.40
2019-05-26T10:42:36.298Z,29.50
2019-05-26T10:45:10.398Z,29.60
2019-05-26T10:47:38.867Z,29.70
2019-05-26T10:50:08.744Z,29.70
2019-05-26T10:52:37.213Z,29.60
2019-05-26T10:55:08.537Z,29.40
2019-05-26T10:57:37.008Z,29.00
2019-05-26T11:00:09.700Z,28.70
2019-05-26T11:02:38.139Z,28.70
2019-05-26T11:05:08.826Z,28.70
2019-05-26T11:07:37.356Z,28.90
2019-05-26T11:10:09.522Z,28.90
2019-05-26T11:12:38.351Z,29.00
2019-05-26T11:15:08.687Z,29.10
2019-05-26T11:17:37.406Z,29.30
2019-05-26T11:20:08.040Z,29.30
2019-05-26T11:22:36.508Z,29.40
2019-05-26T11:25:06.669Z,29.70
2019-05-26T11:27:35.123Z,29.80
2019-05-26T11:30:05.328Z,29.80
2019-05-26T11:32:33.765Z,29.70
2019-05-26T11:35:02.472Z,29.70
2019-05-26T11:37:31.010Z,29.80
2019-05-26T11:39:59.633Z,29.90
2019-05-26T11:42:28.068Z,29.90
2019-05-26T11:44:56.514Z,29.90
2019-05-26T11:47:24.989Z,29.90
2019-05-26T11:49:53.506Z,29.80
2019-05-26T11:52:21.945Z,29.70
2019-05-26T11:54:50.408Z,29.90
2019-05-26T11:57:18.840Z,30.10
2019-05-26T11:59:47.579Z,30.40
2019-05-26T12:02:16.130Z,30.60
2019-05-26T12:04:44.662Z,30.50
2019-05-26T12:07:13.092Z,30.60
2019-05-26T12:09:41.615Z,30.70
2019-05-26T12:12:10.060Z,30.90
2019-05-26T12:14:38.806Z,31.10
2019-05-26T12:17:07.383Z,31.40
2019-05-26T12:19:35.842Z,31.70
2019-05-26T12:22:04.338Z,32.00
2019-05-26T12:24:32.799Z,32.20
2019-05-26T12:27:01.245Z,32.30
2019-05-26T12:29:30.104Z,31.90
2019-05-26T12:31:58.531Z,31.70
2019-05-26T12:34:27.009Z,31.80
2019-05-26T12:36:55.451Z,32.10
2019-05-26T12:39:23.911Z,32.50
2019-05-26T12:41:52.425Z,33.00
2019-05-26T12:44:20.885Z,33.40
2019-05-26T12:46:49.321Z,33.70
2019-05-26T12:49:17.771Z,33.90
2019-05-26T12:51:46.213Z,34.20
2019-05-26T12:54:14.672Z,34.60
2019-05-26T12:56:43.114Z,34.90
2019-05-26T12:59:11.551Z,34.90
2019-05-26T13:01:40.007Z,34.70
2019-05-26T13:04:08.448Z,34.80
2019-05-26T13:06:36.923Z,34.90
2019-05-26T13:09:11.622Z,35.10
2019-05-26T13:11:40.071Z,35.30
2019-05-26T13:14:08.580Z,35.70
2019-05-26T13:16:37.082Z,36.00
2019-05-26T13:19:05.727Z,36.10
2019-05-26T13:21:34.271Z,35.90
2019-05-26T13:24:02.732Z,35.80
2019-05-26T13:26:31.236Z,35.60
2019-05-26T13:28:59.667Z,35.50
2019-05-26T13:31:28.124Z,35.20
2019-05-26T13:33:56.612Z,34.90
2019-05-26T13:36:25.072Z,34.80
2019-05-26T13:38:53.511Z,34.70
2019-05-26T13:41:21.972Z,34.60
2019-05-26T13:43:50.410Z,34.60
2019-05-26T13:46:18.889Z,34.90
2019-05-26T13:48:47.366Z,35.10
2019-05-26T13:51:15.860Z,35.30
2019-05-26T13:53:44.316Z,35.30
2019-05-26T13:56:12.891Z,35.20
2019-05-26T13:58:41.401Z,34.90
2019-05-26T14:01:09.955Z,34.60
2019-05-26T14:03:38.462Z,34.50
2019-05-26T14:06:07.058Z,34.30
2019-05-26T14:08:35.499Z,34.30
2019-05-26T14:11:04.103Z,34.30
2019-05-26T14:13:32.551Z,34.50
2019-05-26T14:16:03.113Z,34.70
2019-05-26T14:18:33.879Z,34.80
2019-05-26T14:21:02.351Z,35.20
2019-05-26T14:23:30.852Z,35.60
2019-05-26T14:25:59.320Z,35.90
2019-05-26T14:28:27.805Z,36.00
2019-05-26T14:30:56.321Z,36.30
2019-05-26T14:33:24.763Z,36.50
2019-05-26T14:35:53.995Z,36.30
2019-05-26T14:38:22.752Z,36.00
2019-05-26T14:40:51.324Z,35.90
2019-05-26T14:43:20.067Z,35.70
2019-05-26T14:45:53.314Z,35.60
2019-05-26T14:48:18.700Z,35.50
2019-05-26T14:50:47.128Z,35.40
2019-05-26T14:53:15.685Z,35.40
2019-05-26T14:55:44.255Z,35.60
2019-05-26T14:58:16.066Z,36.00
2019-05-26T15:00:43.107Z,36.10
2019-05-26T15:03:11.645Z,36.10
2019-05-26T15:05:40.090Z,36.00
2019-05-26T15:08:08.631Z,35.80
2019-05-26T15:10:37.073Z,35.70
2019-05-26T15:13:05.532Z,35.60
2019-05-26T15:15:35.142Z,35.50
2019-05-26T15:18:03.799Z,35.50
2019-05-26T15:20:32.240Z,35.60
2019-05-26T15:23:00.720Z,35.30
2019-05-26T15:25:29.172Z,35.10
2019-05-26T15:27:57.646Z,35.20
2019-05-26T15:30:26.260Z,35.40
2019-05-26T15:32:54.847Z,35.60
2019-05-26T15:35:23.292Z,35.60
2019-05-26T15:37:52.433Z,35.70
2019-05-26T15:40:20.954Z,35.80
2019-05-26T15:42:49.434Z,35.80
2019-05-26T15:45:18.109Z,35.60
2019-05-26T15:47:46.559Z,35.40
2019-05-26T15:50:15.476Z,35.00
2019-05-26T15:52:43.985Z,34.80
2019-05-26T15:55:12.665Z,34.40
2019-05-26T15:57:41.195Z,34.30
2019-05-26T16:00:11.964Z,34.30
2019-05-26T16:02:40.403Z,34.40
2019-05-26T16:05:10.649Z,34.40
2019-05-26T16:07:39.086Z,34.30
2019-05-26T16:10:08.279Z,34.40
2019-05-26T16:12:36.763Z,34.50
2019-05-26T16:15:09.277Z,34.40
2019-05-26T16:17:38.901Z,34.20
2019-05-26T16:20:09.137Z,34.10
2019-05-26T16:22:37.826Z,33.90
2019-05-26T16:25:10.944Z,33.60
2019-05-26T16:27:43.035Z,33.20
2019-05-26T16:30:13.990Z,32.70
2019-05-26T16:32:42.474Z,31.90
2019-05-26T16:35:11.328Z,31.00
2019-05-26T16:37:39.784Z,30.40
2019-05-26T16:40:08.576Z,29.80
2019-05-26T16:42:38.656Z,29.30
2019-05-26T16:45:08.521Z,28.90
2019-05-26T16:47:37.055Z,28.70
2019-05-26T16:50:08.544Z,28.50
2019-05-26T16:52:37.081Z,28.30
2019-05-26T16:55:07.281Z,28.10
2019-05-26T16:57:35.814Z,27.90
2019-05-26T17:00:06.349Z,27.70
2019-05-26T17:02:34.919Z,27.50
2019-05-26T17:05:03.768Z,27.20
2019-05-26T17:07:32.643Z,26.90
2019-05-26T17:10:01.248Z,26.70
2019-05-26T17:12:29.794Z,26.50
2019-05-26T17:14:58.464Z,26.40
2019-05-26T17:17:26.902Z,26.30
2019-05-26T17:19:55.366Z,26.30
2019-05-26T17:22:23.986Z,26.10
2019-05-26T17:24:59.859Z,26.00
2019-05-26T17:27:26.983Z,25.90
2019-05-26T17:29:58.456Z,25.90
2019-05-26T17:32:27.349Z,25.80
2019-05-26T17:34:55.864Z,25.80
2019-05-26T17:37:24.294Z,25.70
2019-05-26T17:39:52.756Z,25.60
2019-05-26T17:42:21.189Z,25.50
2019-05-26T17:44:49.686Z,25.40
2019-05-26T17:47:29.815Z,25.40
2019-05-26T17:49:48.371Z,25.40
2019-05-26T17:52:16.915Z,25.30
2019-05-26T17:54:45.385Z,25.30
2019-05-26T17:57:13.840Z,25.20
2019-05-26T17:59:44.819Z,25.20
2019-05-26T18:02:13.271Z,25.20
2019-05-26T18:04:41.717Z,25.10
2019-05-26T18:07:10.183Z,25.00
2019-05-26T18:09:44.318Z,25.00
2019-05-26T18:12:09.147Z,24.90
2019-05-26T18:14:37.698Z,24.80
2019-05-26T18:17:06.473Z,24.80
2019-05-26T18:19:35.175Z,24.70
2019-05-26T18:22:03.636Z,24.60
2019-05-26T18:24:32.116Z,24.60
2019-05-26T18:27:00.695Z,24.50
2019-05-26T18:29:29.280Z,24.50
2019-05-26T18:31:57.836Z,24.50
2019-05-26T18:34:26.344Z,24.50
2019-05-26T18:36:55.002Z,24.40
2019-05-26T18:39:23.493Z,24.40
2019-05-26T18:41:52.099Z,24.40
2019-05-26T18:44:23.313Z,24.40
2019-05-26T18:46:53.646Z,24.40
2019-05-26T18:49:22.235Z,24.30
2019-05-26T18:51:50.756Z,24.30
2019-05-26T18:54:19.183Z,24.30
2019-05-26T18:56:50.418Z,24.30
2019-05-26T18:59:18.986Z,24.20
2019-05-26T19:01:47.452Z,24.20
2019-05-26T19:04:15.915Z,24.20
2019-05-26T19:06:45.116Z,24.20
2019-05-26T19:09:13.543Z,24.30
2019-05-26T19:11:42.016Z,24.30
2019-05-26T19:14:11.154Z,24.30
2019-05-26T19:16:42.470Z,24.30
2019-05-26T19:19:10.975Z,24.20
2019-05-26T19:21:39.456Z,24.20
2019-05-26T19:24:08.083Z,24.10
2019-05-26T19:26:36.597Z,24.00
2019-05-26T19:29:05.122Z,24.00
2019-05-26T19:31:33.658Z,23.90
2019-05-26T19:34:02.195Z,23.90
2019-05-26T19:36:30.641Z,23.80
2019-05-26T19:38:59.186Z,23.70
2019-05-26T19:41:27.637Z,23.70
2019-05-26T19:43:56.098Z,23.60
2019-05-26T19:46:27.345Z,23.60
2019-05-26T19:48:57.666Z,23.50
2019-05-26T19:51:26.257Z,23.50
2019-05-26T19:53:54.756Z,23.40
2019-05-26T19:56:23.242Z,23.40
2019-05-26T19:58:51.707Z,23.30
2019-05-26T20:01:20.233Z,23.20
2019-05-26T20:03:48.758Z,23.20
2019-05-26T20:06:17.198Z,23.10
2019-05-26T20:08:45.853Z,22.90
2019-05-26T20:11:14.410Z,22.70
2019-05-26T20:13:42.895Z,22.50
2019-05-26T20:16:11.475Z,22.30
2019-05-26T20:18:40.123Z,22.00
2019-05-26T20:21:08.563Z,21.90
2019-05-26T20:23:37.024Z,21.80
2019-05-26T20:26:05.481Z,21.60
2019-05-26T20:28:33.954Z,21.40
2019-05-26T20:31:02.390Z,21.30
2019-05-26T20:33:30.881Z,21.20
2019-05-26T20:35:59.450Z,21.20
2019-05-26T20:38:28.043Z,21.30
2019-05-26T20:40:56.564Z,21.20
2019-05-26T20:43:25.204Z,21.20
2019-05-26T20:45:53.751Z,21.20
2019-05-26T20:48:22.194Z,21.20
2019-05-26T20:50:50.653Z,21.10
2019-05-26T20:53:19.223Z,21.10
2019-05-26T20:55:47.684Z,21.00
2019-05-26T20:58:16.120Z,21.00
2019-05-26T21:00:44.573Z,21.00
2019-05-26T21:03:13.356Z,21.10
2019-05-26T21:05:41.855Z,21.10
2019-05-26T21:08:10.552Z,21.20
2019-05-26T21:10:39.006Z,21.20
2019-05-26T21:13:07.520Z,21.20
2019-05-26T21:15:36.503Z,21.20
2019-05-26T21:18:05.016Z,21.20
2019-05-26T21:20:33.520Z,21.20
2019-05-26T21:23:02.340Z,21.20
2019-05-26T21:25:31.233Z,21.20
2019-05-26T21:27:59.672Z,21.20
2019-05-26T21:30:28.136Z,21.20
2019-05-26T21:32:56.577Z,21.10
2019-05-26T21:35:25.036Z,21.10
2019-05-26T21:37:53.752Z,21.10
2019-05-26T21:40:22.653Z,21.00
2019-05-26T21:42:51.088Z,20.90
2019-05-26T21:45:19.642Z,20.80
2019-05-26T21:47:48.267Z,20.80
2019-05-26T21:50:17.548Z,20.80
2019-05-26T21:52:45.999Z,20.60
2019-05-26T21:55:14.829Z,20.40
2019-05-26T21:57:43.308Z,20.20
2019-05-26T22:00:17.285Z,20.10
2019-05-26T22:02:45.723Z,20.00
2019-05-26T22:05:14.579Z,19.90
2019-05-26T22:07:43.015Z,19.90
2019-05-26T22:10:11.863Z,19.80
2019-05-26T22:12:40.371Z,19.70
2019-05-26T22:15:09.471Z,19.70
2019-05-26T22:17:38.000Z,19.70
2019-05-26T22:20:07.866Z,19.70
2019-05-26T22:22:36.303Z,19.70
2019-05-26T22:25:06.608Z,19.60
2019-05-26T22:27:35.048Z,19.60
2019-05-26T22:30:04.838Z,19.60
2019-05-26T22:32:33.359Z,19.60
2019-05-26T22:35:01.831Z,19.60
2019-05-26T22:37:30.374Z,19.70
2019-05-26T22:39:58.864Z,19.70
2019-05-26T22:42:27.370Z,19.70
2019-05-26T22:44:55.847Z,19.80
2019-05-26T22:47:24.325Z,19.80
2019-05-26T22:49:52.750Z,19.90
2019-05-26T22:52:21.306Z,19.90
2019-05-26T22:54:49.814Z,19.80
2019-05-26T22:57:18.270Z,19.70
2019-05-26T22:59:46.696Z,19.60
2019-05-26T23:02:15.147Z,19.50
2019-05-26T23:04:43.584Z,19.50
2019-05-26T23:07:12.081Z,19.40
2019-05-26T23:09:40.506Z,19.40
2019-05-26T23:12:08.959Z,19.40
2019-05-26T23:14:37.429Z,19.40
2019-05-26T23:17:05.961Z,19.40
2019-05-26T23:19:35.106Z,19.50
2019-05-26T23:22:03.661Z,19.60
2019-05-26T23:24:32.141Z,19.60
2019-05-26T23:27:01.000Z,19.70
2019-05-26T23:29:29.436Z,19.80
2019-05-26T23:31:57.998Z,19.90
2019-05-26T23:34:26.491Z,20.00
2019-05-26T23:36:55.022Z,20.10
2019-05-26T23:39:23.457Z,20.10
2019-05-26T23:41:51.916Z,20.10
2019-05-26T23:44:20.357Z,20.10
2019-05-26T23:46:48.800Z,20.20
2019-05-26T23:49:17.254Z,20.10
2019-05-26T23:51:45.703Z,20.00
2019-05-26T23:54:14.176Z,20.10
2019-05-26T23:56:42.658Z,20.10
2019-05-26T23:59:11.103Z,20.00
